Time;durP1;ratioP1;P1;durP2;ratioP2;P2;SDS_P1;SDS_P2;PMS_P1;PMS_P2;Temp;Humidity;BMP_temperature;BMP_pressure;BME280_temperature;BME280_humidity;BME280_pressure;Samples;Min_cycle;Max_cycle;Signal;HPM_P1;HPM_P2
2022/10/13 00:01:10;;;;;;;27.65;15.40;;;;;;;10.50;93.11;101862.56;5024523;28;20551;-56
2022/10/13 00:03:37;;;;;;;27.95;15.38;;;;;;;10.48;93.55;101853.91;5037821;28;20084;-57
2022/10/13 00:06:09;;;;;;;26.40;15.25;;;;;;;10.49;93.53;101860.88;5030739;28;20033;-56
2022/10/13 00:08:36;;;;;;;26.60;15.35;;;;;;;10.49;93.03;101867.03;5032344;28;20489;-59
2022/10/13 00:11:09;;;;;;;27.08;14.82;;;;;;;10.50;92.67;101857.25;5032425;28;20039;-57
2022/10/13 00:13:34;;;;;;;24.55;15.25;;;;;;;10.50;93.30;101851.94;5036063;28;20384;-58
2022/10/13 00:16:01;;;;;;;27.33;14.93;;;;;;;10.49;93.01;101851.13;5034590;28;20029;-59
2022/10/13 00:18:26;;;;;;;29.75;15.88;;;;;;;10.49;93.08;101844.97;5034646;28;20038;-59
2022/10/13 00:20:52;;;;;;;26.90;15.32;;;;;;;10.49;93.52;101839.66;5025694;28;20488;-57
2022/10/13 00:23:17;;;;;;;24.10;15.23;;;;;;;10.47;94.07;101845.09;5034475;28;20038;-58
2022/10/13 00:25:45;;;;;;;27.20;15.57;;;;;;;10.46;nan;101840.78;5040244;28;20025;-58
2022/10/13 00:28:10;;;;;;;27.73;15.52;;;;;;;10.45;93.79;101840.91;5035737;28;20493;-58
2022/10/13 00:30:37;;;;;;;29.42;15.10;;;;;;;10.41;93.82;101835.00;5031297;28;20040;-58
2022/10/13 00:33:02;;;;;;;26.42;15.13;;;;;;;10.42;93.78;101838.50;5035909;28;20463;-58
2022/10/13 00:35:28;;;;;;;28.50;15.63;;;;;;;10.44;93.44;101847.19;5039616;28;20133;-56
2022/10/13 00:37:53;;;;;;;26.30;15.18;;;;;;;10.44;93.58;101836.59;5029236;28;20065;-58
2022/10/13 00:40:18;;;;;;;29.02;15.50;;;;;;;10.45;93.74;101838.25;5027501;28;20060;-60
2022/10/13 00:42:43;;;;;;;25.40;14.95;;;;;;;10.45;93.72;101832.94;5036179;28;20041;-59
2022/10/13 00:45:23;;;;;;;25.85;15.13;;;;;;;10.45;93.69;101841.75;5029022;28;20120;-58
2022/10/13 00:47:54;;;;;;;26.15;15.13;;;;;;;10.46;94.34;101834.66;5028636;28;20123;-57
2022/10/13 00:50:23;;;;;;;25.40;15.02;;;;;;;10.43;93.57;101835.75;5035580;28;20057;-59
2022/10/13 00:52:50;;;;;;;27.52;15.23;;;;;;;10.45;93.42;101833.78;5031962;28;20037;-57
2022/10/13 00:55:19;;;;;;;28.33;15.27;;;;;;;10.45;93.61;101833.78;5035946;28;20033;-57
2022/10/13 00:57:46;;;;;;;25.48;14.60;;;;;;;10.45;94.15;101827.63;5028675;28;20037;-59
2022/10/13 01:00:12;;;;;;;24.23;15.05;;;;;;;10.46;94.16;101834.66;5044338;28;20040;-58
2022/10/13 01:02:37;;;;;;;28.77;15.05;;;;;;;10.46;93.60;101834.66;5039992;28;20041;-57
2022/10/13 01:05:05;;;;;;;28.35;15.02;;;;;;;10.47;93.66;101831.00;5033048;28;20033;-58
2022/10/13 01:07:30;;;;;;;25.23;15.05;;;;;;;10.46;93.43;101832.00;5035714;28;20055;-58
2022/10/13 01:09:57;;;;;;;26.05;14.98;;;;;;;10.43;94.04;101825.16;5035954;28;20557;-57
2022/10/13 01:12:29;;;;;;;29.60;15.48;;;;;;;10.45;93.76;101827.63;5038718;28;20282;-57
2022/10/13 01:15:04;;;;;;;30.05;15.35;;;;;;;10.47;94.05;101831.00;5040073;28;20041;-57
2022/10/13 01:17:40;;;;;;;29.17;15.05;;;;;;;10.45;94.54;101827.63;5029009;28;20037;-57
2022/10/13 01:20:24;;;;;;;31.10;15.23;;;;;;;10.47;94.45;101825.72;5034749;28;20044;-58
2022/10/13 01:23:02;;;;;;;28.67;14.88;;;;;;;10.45;94.00;101828.50;5033405;28;20036;-57
2022/10/13 01:26:05;;;;;;;29.35;14.68;;;;;;;10.47;94.04;101831.00;5034143;28;20041;-57
2022/10/13 01:28:46;;;;;;;26.95;14.32;;;;;;;10.46;94.07;101822.22;5031789;28;20055;-59
2022/10/13 01:31:38;;;;;;;27.65;15.15;;;;;;;10.48;94.16;101827.38;5033867;28;20075;-58
2022/10/13 01:34:21;;;;;;;27.75;14.90;;;;;;;10.48;94.47;101827.38;5039089;28;20025;-59
2022/10/13 01:36:49;;;;;;;26.52;14.27;;;;;;;10.48;94.45;101832.69;5032778;28;20837;-57
2022/10/13 01:39:34;;;;;;;28.38;14.52;;;;;;;10.48;94.89;101828.25;5040037;28;20045;-57
2022/10/13 01:42:23;;;;;;;29.42;14.93;;;;;;;10.49;94.44;101819.31;5029273;28;20057;-57
2022/10/13 01:44:58;;;;;;;26.27;15.23;;;;;;;10.49;94.02;101814.00;5038256;28;20092;-57
2022/10/13 01:47:25;;;;;;;26.60;14.32;;;;;;;10.50;94.62;101820.13;5029544;28;20131;-59
2022/10/13 01:49:53;;;;;;;26.90;14.05;;;;;;;10.43;95.36;101808.38;5035582;28;20037;-57
2022/10/13 01:52:22;;;;;;;29.23;14.25;;;;;;;10.48;95.32;101812.31;5040390;28;20438;-57
2022/10/13 01:54:49;;;;;;;25.58;14.18;;;;;;;10.51;94.75;101813.00;5040302;28;20035;-59
2022/10/13 01:57:33;;;;;;;28.90;14.98;;;;;;;10.53;94.21;101811.91;5031847;28;20055;-59
2022/10/13 02:00:05;;;;;;;;;;;;;;;10.58;93.78;101804.38;5043376;28;20392;-58
2022/10/13 02:02:38;;;;;;;30.20;14.88;;;;;;;10.56;95.14;101794.88;5030146;28;19974;-57
2022/10/13 02:05:18;;;;;;;29.33;14.70;;;;;;;10.56;94.63;101801.00;5037989;28;20033;-57
2022/10/13 02:07:51;;;;;;;27.35;14.68;;;;;;;10.57;94.79;101796.56;5035848;28;20492;-57
2022/10/13 02:10:21;;;;;;;27.67;15.07;;;;;;;10.57;95.14;101800.03;5029535;28;20040;-58
2022/10/13 02:12:58;;;;;;;28.65;14.55;;;;;;;10.58;95.09;101796.41;5031661;28;20038;-57
2022/10/13 02:15:29;;;;;;;29.48;15.23;;;;;;;10.55;95.05;101791.38;5041366;28;20044;-58
2022/10/13 02:17:55;;;;;;;26.95;14.77;;;;;;;10.59;95.12;101789.28;5030497;28;20033;-57
2022/10/13 02:20:21;;;;;;;29.55;15.15;;;;;;;10.58;95.07;101783.16;5030101;28;20041;-58
2022/10/13 02:22:53;;;;;;;31.77;15.07;;;;;;;10.57;95.13;101776.16;5026532;28;20041;-59
2022/10/13 02:25:19;;;;;;;25.17;14.48;;;;;;;10.59;94.71;101774.22;5036028;28;20040;-59
2022/10/13 02:27:45;;;;;;;26.05;14.60;;;;;;;10.57;94.89;101770.84;5029418;28;20883;-56
2022/10/13 02:30:20;;;;;;;32.50;15.07;;;;;;;10.52;95.07;101765.16;5028685;28;20033;-58
2022/10/13 02:32:45;;;;;;;26.40;14.40;;;;;;;10.58;94.81;101774.34;5030319;28;20565;-59
2022/10/13 02:35:11;;;;;;;27.35;14.35;;;;;;;10.58;95.07;101780.50;5040946;28;20049;-58
2022/10/13 02:37:36;;;;;;;26.58;14.20;;;;;;;10.58;95.05;101769.91;5039650;28;20574;-59
2022/10/13 02:40:02;;;;;;;26.70;14.48;;;;;;;10.59;95.10;101766.25;5032285;28;20061;-59
2022/10/13 02:42:27;;;;;;;29.88;14.90;;;;;;;10.60;95.69;101775.03;5030296;28;20049;-58
2022/10/13 02:44:53;;;;;;;24.50;14.15;;;;;;;10.61;95.61;101774.91;5036435;28;20443;-59
2022/10/13 02:47:18;;;;;;;26.02;14.13;;;;;;;10.61;95.70;101763.47;5035609;28;20143;-57
2022/10/13 02:49:43;;;;;;;27.60;14.27;;;;;;;10.58;95.27;101759.28;5043081;28;20120;-56
2022/10/13 02:52:09;;;;;;;31.02;14.20;;;;;;;10.62;95.96;101765.16;5037691;28;20029;-57
2022/10/13 02:54:34;;;;;;;23.13;13.45;;;;;;;10.62;95.24;101763.31;5037123;28;20033;-59
2022/10/13 02:56:59;;;;;;;26.30;14.30;;;;;;;10.63;94.88;101765.03;5033986;28;20057;-58
2022/10/13 02:59:24;;;;;;;26.27;13.70;;;;;;;10.63;95.70;101761.53;5030156;28;20467;-58
2022/10/13 03:01:50;;;;;;;24.58;13.18;;;;;;;10.63;95.37;101764.16;5030809;28;20044;-57
2022/10/13 03:04:15;;;;;;;23.52;13.85;;;;;;;10.63;95.19;101765.03;5035677;28;20866;-59
2022/10/13 03:06:40;;;;;;;27.10;14.20;;;;;;;10.65;96.30;101759.56;5029989;28;20024;-57
2022/10/13 03:09:06;;;;;;;26.17;13.88;;;;;;;10.65;95.20;101758.72;5033451;28;20061;-58
2022/10/13 03:11:31;;;;;;;27.77;13.68;;;;;;;10.65;95.36;101753.44;5032044;28;20033;-59
2022/10/13 03:13:56;;;;;;;21.85;13.88;;;;;;;10.65;95.50;101748.13;5036745;28;20040;-58
2022/10/13 03:16:22;;;;;;;25.60;13.70;;;;;;;10.63;95.07;101746.47;5038793;28;20041;-58
2022/10/13 03:18:47;;;;;;;21.38;13.18;;;;;;;10.65;95.70;101742.81;5026732;28;20457;-58
2022/10/13 03:21:12;;;;;;;23.60;13.45;;;;;;;10.65;96.15;101748.13;5033759;28;20044;-57
2022/10/13 03:23:38;;;;;;;20.40;12.73;;;;;;;10.65;95.94;101748.94;5036690;28;20025;-58
2022/10/13 03:26:03;;;;;;;22.98;12.88;;;;;;;10.66;96.22;101744.50;5040636;28;20424;-57
2022/10/13 03:28:29;;;;;;;23.30;12.82;;;;;;;10.65;96.13;101748.94;5034907;28;20044;-58
2022/10/13 03:31:03;;;;;;;24.25;13.82;;;;;;;10.66;96.26;101745.31;5042230;28;20025;-59
2022/10/13 03:33:29;;;;;;;27.05;13.63;;;;;;;10.67;95.98;101746.16;5032798;28;20064;-57
2022/10/13 03:35:57;;;;;;;21.70;13.55;;;;;;;10.67;95.95;101735.56;5033943;28;20063;-59
2022/10/13 03:38:22;;;;;;;23.90;13.45;;;;;;;10.66;95.78;101728.56;5032114;28;20040;-56
2022/10/13 03:40:48;;;;;;;23.20;13.43;;;;;;;10.69;96.26;101738.88;5032373;28;20029;-57
2022/10/13 03:43:13;;;;;;;23.08;13.35;;;;;;;10.71;95.88;101731.66;5037005;28;20037;-58
2022/10/13 03:45:38;;;;;;;27.50;13.00;;;;;;;10.69;95.78;101733.59;5039398;28;20033;-58
2022/10/13 03:48:04;;;;;;;24.98;13.20;;;;;;;10.71;95.54;101731.66;5034561;28;20069;-60
2022/10/13 03:50:29;;;;;;;22.40;13.15;;;;;;;10.72;95.65;101728.84;5040830;28;20037;-57
2022/10/13 03:52:54;;;;;;;24.45;13.07;;;;;;;10.72;95.98;101728.00;5032438;28;20044;-57
2022/10/13 03:55:19;;;;;;;24.40;12.98;;;;;;;10.75;95.59;101722.41;5032041;28;20041;-59
2022/10/13 03:57:45;;;;;;;23.27;13.50;;;;;;;10.74;95.99;101720.75;5023261;28;20048;-59
2022/10/13 04:00:11;;;;;;;23.08;13.23;;;;;;;10.74;95.53;101712.78;5032353;28;20057;-59
2022/10/13 04:02:36;;;;;;;24.83;13.70;;;;;;;10.75;95.71;101703.84;5028422;28;20039;-57
2022/10/13 04:05:01;;;;;;;27.08;13.55;;;;;;;10.75;96.12;101712.66;5034985;28;20621;-58
2022/10/13 04:07:26;;;;;;;23.60;13.35;;;;;;;10.76;95.61;101710.84;5036962;28;20041;-59
2022/10/13 04:09:52;;;;;;;24.25;13.18;;;;;;;10.82;95.67;101712.09;5033047;28;20121;-56
2022/10/13 04:12:18;;;;;;;24.02;12.70;;;;;;;10.79;96.08;101707.03;5032956;28;20051;-58
2022/10/13 04:14:43;;;;;;;23.63;12.70;;;;;;;10.81;95.20;101705.94;5032293;28;20444;-57
2022/10/13 04:17:09;;;;;;;25.83;13.18;;;;;;;10.81;95.90;101705.09;5030788;28;20029;-58
2022/10/13 04:19:34;;;;;;;24.40;13.23;;;;;;;10.82;95.48;101707.63;5037893;28;20415;-58
2022/10/13 04:21:59;;;;;;;22.60;12.65;;;;;;;10.82;95.70;101706.78;5030217;28;20481;-57
2022/10/13 04:24:25;;;;;;;23.70;13.23;;;;;;;10.83;96.02;101697.84;5033869;28;20043;-57
2022/10/13 04:26:50;;;;;;;23.63;13.15;;;;;;;10.84;96.81;101692.38;5025219;28;20029;-60
2022/10/13 04:29:15;;;;;;;24.83;13.23;;;;;;;10.82;96.77;101691.72;5028845;28;20041;-59
2022/10/13 04:31:43;;;;;;;20.92;13.27;;;;;;;10.81;96.75;101684.69;5036256;28;20029;-60
2022/10/13 04:34:09;;;;;;;24.15;13.35;;;;;;;10.82;97.34;101686.41;5034640;28;20040;-62
2022/10/13 04:36:35;;;;;;;23.80;12.90;;;;;;;10.81;97.24;101684.69;5026821;28;20079;-60
2022/10/13 04:39:00;;;;;;;22.67;13.40;;;;;;;10.81;96.66;101692.66;5030819;28;20041;-61
2022/10/13 04:41:25;;;;;;;20.17;12.52;;;;;;;10.81;97.04;101692.66;5028608;28;20080;-60
2022/10/13 04:43:52;;;;;;;24.63;13.43;;;;;;;10.81;97.00;101690.00;5027850;28;20457;-60
2022/10/13 04:46:23;;;;;;;25.75;13.77;;;;;;;10.80;96.79;101683.03;5027460;28;20144;-62
2022/10/13 04:48:49;;;;;;;25.02;13.75;;;;;;;10.80;96.87;101683.03;5022197;28;20033;-59
2022/10/13 04:51:20;;;;;;;23.65;13.27;;;;;;;10.78;96.82;101671.75;5023590;28;20041;-58
2022/10/13 04:53:46;;;;;;;22.50;13.32;;;;;;;10.81;96.78;101690.00;5026184;28;20064;-57
2022/10/13 04:56:14;;;;;;;24.25;13.82;;;;;;;10.80;96.56;101695.47;5027272;28;20396;-58
2022/10/13 04:58:41;;;;;;;24.77;13.70;;;;;;;10.80;96.63;101693.66;5025215;28;20033;-57
2022/10/13 05:01:10;;;;;;;23.70;14.30;;;;;;;10.81;96.50;101689.19;5028989;28;20053;-60
2022/10/13 05:03:36;;;;;;;21.90;13.50;;;;;;;10.77;97.29;101672.72;5028310;28;20025;-58
2022/10/13 05:06:01;;;;;;;23.98;13.27;;;;;;;10.80;96.89;101676.91;5025888;28;20595;-57
2022/10/13 05:08:26;;;;;;;28.55;13.90;;;;;;;10.79;97.12;101676.06;5026697;28;20041;-57
2022/10/13 05:10:57;;;;;;;25.88;13.65;;;;;;;10.77;96.86;101678.03;5028097;28;20036;-59
2022/10/13 05:13:24;;;;;;;25.90;13.80;;;;;;;10.78;96.50;101687.66;5023754;28;20109;-58
2022/10/13 05:15:49;;;;;;;25.27;13.82;;;;;;;10.77;97.20;101684.16;5024578;28;20487;-58
2022/10/13 05:18:15;;;;;;;24.13;13.63;;;;;;;10.77;96.87;101675.38;5024073;28;20029;-58
2022/10/13 05:20:40;;;;;;;25.77;13.75;;;;;;;10.78;96.76;101682.34;5024567;28;20028;-58
2022/10/13 05:23:05;;;;;;;24.30;13.98;;;;;;;10.78;96.47;101674.38;5023476;28;20037;-59
2022/10/13 05:25:30;;;;;;;24.38;13.77;;;;;;;10.77;97.36;101685.97;5030378;28;20056;-58
2022/10/13 05:27:56;;;;;;;25.50;14.23;;;;;;;10.77;96.78;101693.94;5027024;28;20431;-58
2022/10/13 05:30:21;;;;;;;27.33;13.80;;;;;;;10.75;96.50;101687.91;5026234;28;20029;-58
2022/10/13 05:32:46;;;;;;;27.75;14.02;;;;;;;10.73;97.09;101692.53;5030184;28;20017;-60
2022/10/13 05:35:12;;;;;;;28.40;14.30;;;;;;;10.75;97.26;101695.88;5024236;28;20035;-58
2022/10/13 05:37:37;;;;;;;26.67;14.88;;;;;;;10.72;97.16;101691.69;5027302;28;20118;-57
2022/10/13 05:40:02;;;;;;;23.83;14.15;;;;;;;10.72;97.46;101696.19;5025750;28;20033;-60
2022/10/13 05:42:29;;;;;;;27.48;14.60;;;;;;;10.72;96.92;101685.56;5024563;28;20049;-58
2022/10/13 05:44:55;;;;;;;24.40;14.93;;;;;;;10.70;97.24;101687.53;5030021;28;20134;-57
2022/10/13 05:47:25;;;;;;;28.00;13.88;;;;;;;10.71;97.31;101689.19;5034853;28;20316;-58
2022/10/13 05:49:51;;;;;;;26.00;14.05;;;;;;;10.70;97.12;101682.22;5025792;28;20033;-60
2022/10/13 05:52:16;;;;;;;25.42;14.40;;;;;;;10.68;97.44;101678.84;5025415;28;20036;-58
2022/10/13 05:54:46;;;;;;;26.30;14.15;;;;;;;10.70;97.82;101682.22;5030009;28;20506;-58
2022/10/13 05:57:19;;;;;;;25.88;14.05;;;;;;;10.70;97.23;101690.19;5022851;28;20029;-58
2022/10/13 05:59:51;;;;;;;26.63;15.20;;;;;;;10.70;97.23;101690.19;5023853;28;20026;-58
2022/10/13 06:02:19;;;;;;;26.45;14.82;;;;;;;10.67;97.60;101690.44;5025081;28;20091;-60
2022/10/13 06:04:48;;;;;;;23.30;14.95;;;;;;;10.69;97.98;101689.34;5029372;28;20041;-58
2022/10/13 06:07:14;;;;;;;28.17;14.65;;;;;;;10.71;97.29;101683.91;5023684;28;20033;-59
2022/10/13 06:09:40;;;;;;;25.88;14.48;;;;;;;10.71;98.10;101678.59;5025218;28;20083;-58
2022/10/13 06:12:07;;;;;;;27.27;14.40;;;;;;;10.72;97.85;101674.97;5024537;28;20448;-60
2022/10/13 06:14:33;;;;;;;26.45;14.95;;;;;;;10.73;97.84;101668.66;5026575;28;20034;-56
2022/10/13 06:16:58;;;;;;;26.85;14.93;;;;;;;10.72;97.10;101667.00;5028297;28;20029;-59
2022/10/13 06:19:23;;;;;;;28.15;14.77;;;;;;;10.74;97.13;101663.22;5021797;28;20042;-59
2022/10/13 06:21:49;;;;;;;26.23;14.93;;;;;;;10.73;97.83;101666.88;5027049;28;20033;-58
2022/10/13 06:24:14;;;;;;;25.90;15.32;;;;;;;10.76;97.48;101657.78;5026758;28;20041;-60
2022/10/13 06:26:40;;;;;;;25.73;14.38;;;;;;;10.76;97.49;101661.25;5025670;28;21100;-58
2022/10/13 06:29:05;;;;;;;26.67;15.25;;;;;;;10.78;97.89;101669.09;5021869;28;20033;-59
2022/10/13 06:31:30;;;;;;;26.83;14.70;;;;;;;10.80;97.14;101672.41;5030467;28;20717;-57
2022/10/13 06:33:57;;;;;;;26.15;15.07;;;;;;;10.79;97.08;101668.09;5038203;28;20060;-58
2022/10/13 06:36:22;;;;;;;25.63;14.55;;;;;;;10.81;97.13;101679.38;5035233;28;20033;-58
2022/10/13 06:38:48;;;;;;;24.52;14.65;;;;;;;10.84;97.75;101668.50;5026248;28;20040;-58
2022/10/13 06:41:13;;;;;;;23.40;14.45;;;;;;;10.85;97.38;101664.88;5031039;28;20168;-59
2022/10/13 06:43:39;;;;;;;26.60;15.23;;;;;;;10.86;97.51;101655.94;5029908;28;20477;-62
2022/10/13 06:46:05;;;;;;;27.02;14.55;;;;;;;10.88;97.07;101659.28;5027474;28;20034;-61
2022/10/13 06:48:31;;;;;;;23.65;14.00;;;;;;;10.90;97.62;101667.94;5025117;28;20060;-57
2022/10/13 06:51:01;;;;;;;23.05;14.15;;;;;;;10.92;97.78;101669.59;5027657;28;20365;-59
2022/10/13 06:53:26;;;;;;;28.30;15.18;;;;;;;10.94;97.35;101673.78;5019916;28;20042;-59
2022/10/13 06:55:55;;;;;;;27.13;14.25;;;;;;;10.95;96.71;101672.00;5022097;28;20052;-60
2022/10/13 06:58:20;;;;;;;29.50;14.38;;;;;;;10.96;96.87;101657.72;5037246;28;20033;-59
2022/10/13 07:00:46;;;;;;;25.25;14.70;;;;;;;10.99;97.15;101660.09;5040369;28;20043;-59
2022/10/13 07:03:11;;;;;;;30.90;14.98;;;;;;;11.01;97.03;101674.06;5022948;28;20033;-58
2022/10/13 07:05:36;;;;;;;29.95;14.43;;;;;;;11.00;96.44;101657.28;5029749;28;20037;-58
2022/10/13 07:08:02;;;;;;;26.00;13.98;;;;;;;11.02;96.85;101657.16;5027128;28;20033;-59
2022/10/13 07:10:27;;;;;;;30.40;15.00;;;;;;;11.04;96.99;101657.84;5024555;28;20089;-58
2022/10/13 07:12:52;;;;;;;29.52;14.50;;;;;;;11.04;96.96;101660.50;5028070;28;20032;-58
2022/10/13 07:15:17;;;;;;;24.58;14.40;;;;;;;11.05;96.91;101664.81;5033459;28;20420;-59
2022/10/13 07:17:43;;;;;;;24.98;14.73;;;;;;;11.07;96.62;101668.19;5027285;28;20033;-58
2022/10/13 07:20:09;;;;;;;30.65;14.70;;;;;;;11.08;97.05;101669.84;5038618;28;20055;-58
2022/10/13 07:22:34;;;;;;;28.38;15.00;;;;;;;11.10;96.82;101672.38;5024832;28;20029;-60
2022/10/13 07:24:59;;;;;;;27.23;15.07;;;;;;;11.11;96.74;101668.72;5034127;28;20033;-57
2022/10/13 07:27:24;;;;;;;26.08;14.75;;;;;;;11.12;96.32;101660.63;5028052;28;20561;-58
2022/10/13 07:29:50;;;;;;;27.85;15.50;;;;;;;11.14;96.68;101661.31;5035427;28;20029;-59
2022/10/13 07:32:15;;;;;;;28.65;15.25;;;;;;;11.16;97.11;101667.28;5036952;28;20048;-57
2022/10/13 07:34:41;;;;;;;26.85;15.20;;;;;;;11.16;96.95;101662.00;5036853;28;20043;-60
2022/10/13 07:37:07;;;;;;;30.85;15.13;;;;;;;11.21;96.81;101668.69;5028819;28;20064;-58
2022/10/13 07:39:32;;;;;;;26.88;15.52;;;;;;;11.22;96.62;101676.53;5026411;28;20610;-59
2022/10/13 07:41:57;;;;;;;32.53;16.80;;;;;;;11.25;96.86;101672.75;5021373;28;20053;-58
2022/10/13 07:44:23;;;;;;;31.60;16.27;;;;;;;11.25;95.72;101664.78;5026608;28;20072;-57
2022/10/13 07:46:48;;;;;;;30.90;16.20;;;;;;;11.26;96.45;101666.44;5020477;28;20413;-57
2022/10/13 07:49:13;;;;;;;25.13;15.98;;;;;;;11.28;96.30;101654.69;5019895;28;20517;-58
2022/10/13 07:51:38;;;;;;;28.33;15.82;;;;;;;11.32;95.99;101662.34;5024448;28;20032;-57
2022/10/13 07:54:04;;;;;;;26.42;15.88;;;;;;;11.37;95.44;101663.59;5031886;28;20064;-57
2022/10/13 07:56:29;;;;;;;25.25;15.85;;;;;;;11.43;95.69;101670.13;5025273;28;20649;-58
2022/10/13 07:58:54;;;;;;;27.67;16.38;;;;;;;11.50;96.09;101670.41;5032515;28;20036;-57
2022/10/13 08:01:19;;;;;;;31.67;16.35;;;;;;;11.53;95.74;101672.75;5028768;28;20032;-60
2022/10/13 08:03:45;;;;;;;29.33;16.88;;;;;;;11.59;95.66;101666.84;5026860;28;20609;-59
2022/10/13 08:06:13;;;;;;;29.15;16.77;;;;;;;11.64;95.70;101669.06;5034209;28;20107;-59
2022/10/13 08:08:39;;;;;;;28.85;17.20;;;;;;;11.67;94.66;101669.63;5032132;28;20029;-58
2022/10/13 08:11:08;;;;;;;31.48;17.17;;;;;;;11.68;94.47;101662.47;5035488;28;20036;-59
2022/10/13 08:13:34;;;;;;;28.63;16.10;;;;;;;11.72;94.65;101677.13;5039195;28;20021;-58
2022/10/13 08:16:00;;;;;;;27.30;15.93;;;;;;;11.78;93.30;101670.38;5030326;28;20032;-59
2022/10/13 08:18:26;;;;;;;30.08;16.83;;;;;;;11.75;93.69;101662.72;5039148;28;20041;-59
2022/10/13 08:20:51;;;;;;;31.55;16.45;;;;;;;11.75;93.52;101668.03;5033972;28;20037;-58
2022/10/13 08:23:17;;;;;;;30.45;16.38;;;;;;;11.77;94.05;101652.75;5020001;28;20084;-58
2022/10/13 08:25:43;;;;;;;29.55;16.10;;;;;;;11.79;93.91;101661.44;5023542;28;20052;-59
2022/10/13 08:28:18;;;;;;;28.83;16.77;;;;;;;11.79;93.98;101653.47;5033444;28;20400;-60
2022/10/13 08:30:44;;;;;;;27.88;16.17;;;;;;;11.83;93.15;101654.81;5024382;28;20026;-60
2022/10/13 08:33:09;;;;;;;29.88;16.30;;;;;;;11.91;93.70;101649.59;5038918;28;20044;-59
2022/10/13 08:35:34;;;;;;;27.67;15.57;;;;;;;11.93;94.19;101638.81;5029788;28;20032;-59
2022/10/13 08:37:59;;;;;;;29.77;15.63;;;;;;;11.98;93.55;101648.00;5027619;28;20598;-61
2022/10/13 08:40:25;;;;;;;27.30;15.85;;;;;;;12.02;93.56;101656.50;5029021;28;20036;-59
2022/10/13 08:42:50;;;;;;;26.05;15.32;;;;;;;12.03;92.92;101654.72;5019443;28;20515;-60
2022/10/13 08:45:27;;;;;;;28.48;15.80;;;;;;;12.05;92.59;101650.09;5023077;28;20044;-59
2022/10/13 08:47:59;;;;;;;27.35;14.90;;;;;;;12.07;92.72;101654.28;5019472;28;20041;-60
2022/10/13 08:50:28;;;;;;;26.50;14.80;;;;;;;12.08;92.61;101650.63;5022744;28;20509;-59
2022/10/13 08:52:58;;;;;;;28.88;15.40;;;;;;;12.09;92.44;101651.47;5019318;28;20039;-58
2022/10/13 08:55:41;;;;;;;28.55;15.60;;;;;;;12.10;92.65;101645.97;5031829;28;20033;-60
2022/10/13 08:58:28;;;;;;;24.92;14.88;;;;;;;12.17;92.36;101643.56;5030574;28;20120;-60
2022/10/13 09:01:15;;;;;;;25.77;15.20;;;;;;;12.20;92.44;101642.44;5027003;28;20068;-58
2022/10/13 09:03:48;;;;;;;24.70;14.27;;;;;;;12.17;91.79;101634.75;5025385;28;20041;-57
2022/10/13 09:06:32;;;;;;;;;;;;;;;12.23;92.47;101637.63;5025838;28;20091;-58
2022/10/13 09:09:03;;;;;;;27.48;14.52;;;;;;;12.21;91.42;101638.78;5026021;28;19927;-60
2022/10/13 09:11:32;;;;;;;29.45;14.65;;;;;;;12.17;91.65;101621.44;5039526;28;20059;-60
2022/10/13 09:14:01;;;;;;;27.63;14.77;;;;;;;12.19;91.92;101635.44;5034280;28;20525;-61
2022/10/13 09:16:37;;;;;;;24.73;14.10;;;;;;;12.13;92.16;101623.56;5028260;28;20032;-62
2022/10/13 09:19:11;;;;;;;24.20;13.73;;;;;;;12.18;91.36;101639.09;5037591;28;20507;-62
2022/10/13 09:21:36;;;;;;;25.25;14.13;;;;;;;12.14;92.05;101635.88;5033703;28;20040;-61
2022/10/13 09:24:07;;;;;;;24.35;14.20;;;;;;;12.14;92.03;101638.53;5040523;28;20100;-59
2022/10/13 09:26:36;;;;;;;26.38;14.32;;;;;;;12.15;91.83;101644.69;5023792;28;20049;-61
2022/10/13 09:29:17;;;;;;;29.05;14.48;;;;;;;12.15;92.07;101629.59;5022872;28;20120;-61
2022/10/13 09:31:42;;;;;;;26.40;14.50;;;;;;;12.19;91.22;101630.94;5026622;28;20034;-62
2022/10/13 09:34:13;;;;;;;25.05;14.18;;;;;;;12.19;91.04;101624.81;5027883;28;20021;-62
2022/10/13 09:36:38;;;;;;;27.27;14.70;;;;;;;12.24;91.58;101628.66;5028982;28;20033;-63
2022/10/13 09:39:13;;;;;;;27.90;15.07;;;;;;;12.30;91.33;101623.72;5027707;28;20034;-61
2022/10/13 09:41:41;;;;;;;24.52;14.50;;;;;;;12.33;91.06;101631.41;5029734;28;20049;-58
2022/10/13 09:44:30;;;;;;;26.15;15.23;;;;;;;12.37;91.11;101632.75;5034536;28;20503;-60
2022/10/13 09:46:59;;;;;;;27.77;15.40;;;;;;;12.37;90.39;101633.59;5039159;28;20056;-61
2022/10/13 09:49:28;;;;;;;29.38;15.70;;;;;;;12.37;90.29;101633.59;5027667;28;20557;-61
2022/10/13 09:52:00;;;;;;;27.38;16.17;;;;;;;12.30;90.43;101615.75;5026853;28;20104;-61
2022/10/13 09:54:34;;;;;;;27.20;16.70;;;;;;;12.32;91.88;101624.41;5032075;28;20037;-61
2022/10/13 09:57:14;;;;;;;29.83;16.40;;;;;;;12.30;92.96;101626.38;5025710;28;20508;-60
2022/10/13 09:59:44;;;;;;;29.60;16.65;;;;;;;12.25;93.37;101621.53;5022947;28;20028;-59
2022/10/13 10:02:31;;;;;;;30.08;17.40;;;;;;;12.24;93.68;101623.34;5025781;28;20087;-60
2022/10/13 10:05:01;;;;;;;31.27;17.33;;;;;;;12.20;94.91;101618.50;5024955;28;20052;-61
2022/10/13 10:07:30;;;;;;;31.80;18.15;;;;;;;12.14;95.51;101611.94;5023613;28;20025;-59
2022/10/13 10:10:00;;;;;;;28.98;17.48;;;;;;;12.20;95.72;101615.84;5021212;28;20045;-59
2022/10/13 10:12:30;;;;;;;31.05;16.67;;;;;;;12.18;95.48;101609.84;5024543;28;20507;-58
2022/10/13 10:14:55;;;;;;;28.70;17.92;;;;;;;12.18;96.07;101613.31;5031720;28;20496;-59
2022/10/13 10:17:23;;;;;;;32.47;17.33;;;;;;;12.17;96.33;101606.34;5027682;28;20037;-59
2022/10/13 10:19:48;;;;;;;25.73;16.90;;;;;;;12.17;97.01;101609.00;5026272;28;20139;-59
2022/10/13 10:22:44;;;;;;;28.88;17.65;;;;;;;12.16;96.77;101610.00;5032575;28;20112;-59
2022/10/13 10:25:26;;;;;;;31.05;17.40;;;;;;;12.14;97.71;101617.25;5024171;28;20381;-60
2022/10/13 10:28:03;;;;;;;26.85;17.52;;;;;;;12.06;96.63;101593.28;5022091;28;20080;-58
2022/10/13 10:30:33;;;;;;;31.80;17.00;;;;;;;12.09;96.72;101606.28;5026181;28;20079;-59
2022/10/13 10:33:12;;;;;;;26.10;17.17;;;;;;;12.08;97.20;101602.78;5021839;28;20133;-60
2022/10/13 10:35:54;;;;;;;25.90;16.73;;;;;;;12.05;97.00;101597.75;5035474;28;20048;-59
2022/10/13 10:38:38;;;;;;;29.13;17.15;;;;;;;12.09;96.78;101607.09;5022395;28;20033;-58
2022/10/13 10:41:24;;;;;;;28.85;17.58;;;;;;;12.13;97.39;101615.59;5029274;28;20041;-59
2022/10/13 10:44:10;;;;;;;32.63;18.67;;;;;;;12.18;97.83;101607.19;5023617;28;20037;-59
2022/10/13 10:46:41;;;;;;;29.65;17.77;;;;;;;12.18;98.31;101597.38;5025780;28;20416;-58
2022/10/13 10:49:18;;;;;;;26.25;17.00;;;;;;;12.24;97.85;101599.41;5040680;28;20040;-58
2022/10/13 10:51:44;;;;;;;31.73;17.70;;;;;;;12.26;97.59;101609.06;5040977;28;20029;-62
2022/10/13 10:54:31;;;;;;;28.95;16.85;;;;;;;12.28;97.60;101609.75;5039175;28;20025;-62
2022/10/13 10:57:26;;;;;;;29.42;17.25;;;;;;;12.31;97.82;101601.47;5025916;28;20036;-63
2022/10/13 11:00:16;;;;;;;27.88;17.27;;;;;;;12.32;97.43;101606.63;5022890;28;20037;-62
2022/10/13 11:02:59;;;;;;;28.27;16.98;;;;;;;12.35;97.87;101594.84;5033782;28;20124;-58
2022/10/13 11:05:49;;;;;;;27.80;16.77;;;;;;;12.33;97.79;101594.19;5031286;28;20033;-59
2022/10/13 11:08:26;;;;;;;25.90;16.98;;;;;;;12.34;98.05;101585.22;5022612;28;20124;-59
2022/10/13 11:11:24;;;;;;;27.80;16.25;;;;;;;12.38;98.35;101586.53;5021343;28;20439;-58
2022/10/13 11:13:55;;;;;;;28.80;17.15;;;;;;;12.36;97.92;101583.22;5026219;28;20687;-58
2022/10/13 11:16:57;;;;;;;30.23;16.75;;;;;;;12.40;98.48;101584.59;5036515;28;20065;-61
2022/10/13 11:19:42;;;;;;;27.13;15.68;;;;;;;12.42;98.03;101582.59;5023834;28;20025;-58